Time;durP1;ratioP1;P1;durP2;ratioP2;P2;SDS_P1;SDS_P2;PMS_P1;PMS_P2;Temp;Humidity;BMP_temperature;BMP_pressure;BME280_temperature;BME280_humidity;BME280_pressure;Samples;Min_cycle;Max_cycle;Signal;HPM_P1;HPM_P2
2024/03/28 00:01:11;;;;;;;49.03;9.93;;;;;;;;;;5035717;28;20031;-70
2024/03/28 00:03:36;;;;;;;52.65;11.02;;;;;;;;;;5034543;28;20029;-70
2024/03/28 00:06:02;;;;;;;43.10;10.07;;;;;;;;;;5035311;28;20052;-67
2024/03/28 00:08:28;;;;;;;43.30;10.57;;;;;;;;;;5035287;28;20032;-69
2024/03/28 00:10:53;;;;;;;48.10;10.73;;;;;;;;;;5035326;28;20026;-68
2024/03/28 00:13:19;;;;;;;36.42;9.93;;;;;;;;;;5035488;28;20032;-67
2024/03/28 00:15:44;;;;;;;43.13;11.27;;;;;;;;;;5034160;28;20030;-68
2024/03/28 00:18:10;;;;;;;36.35;9.02;;;;;;;;;;5034637;28;20037;-68
2024/03/28 00:20:36;;;;;;;40.25;10.82;;;;;;;;;;5035206;28;20025;-68
2024/03/28 00:23:01;;;;;;;48.17;10.10;;;;;;;;;;5035513;28;20061;-66
2024/03/28 00:25:27;;;;;;;40.83;9.88;;;;;;;;;;5034221;28;20037;-69
2024/03/28 00:27:52;;;;;;;43.88;10.25;;;;;;;;;;5034304;28;20098;-70
2024/03/28 00:30:18;;;;;;;48.80;10.27;;;;;;;;;;5034835;28;20033;-68
2024/03/28 00:32:47;;;;;;;35.95;9.60;;;;;;;;;;5035008;28;20471;-66
2024/03/28 00:35:12;;;;;;;44.22;10.43;;;;;;;;;;5034898;28;20033;-68
2024/03/28 00:37:38;;;;;;;45.85;10.32;;;;;;;;;;5034555;28;20349;-69
2024/03/28 00:40:03;;;;;;;29.75;8.52;;;;;;;;;;5033143;28;20026;-62
2024/03/28 00:42:29;;;;;;;33.90;9.95;;;;;;;;;;5034255;28;20026;-67
2024/03/28 00:44:54;;;;;;;49.58;10.32;;;;;;;;;;5034487;28;20033;-67
2024/03/28 00:47:19;;;;;;;45.47;9.93;;;;;;;;;;5033837;28;20018;-67
2024/03/28 00:49:45;;;;;;;36.00;10.77;;;;;;;;;;5033443;28;20147;-68
2024/03/28 00:52:10;;;;;;;42.95;10.23;;;;;;;;;;5033749;28;20013;-67
2024/03/28 00:54:36;;;;;;;33.53;9.73;;;;;;;;;;5034159;28;20144;-68
2024/03/28 00:57:01;;;;;;;39.13;9.77;;;;;;;;;;5033442;28;20037;-69
2024/03/28 00:59:26;;;;;;;38.05;9.73;;;;;;;;;;5032996;28;20028;-69
2024/03/28 01:01:52;;;;;;;37.17;10.45;;;;;;;;;;5034316;28;20101;-67
2024/03/28 01:04:18;;;;;;;43.35;10.50;;;;;;;;;;5033994;28;20575;-68
2024/03/28 01:06:43;;;;;;;37.83;10.18;;;;;;;;;;5033773;28;20088;-65
2024/03/28 01:09:09;;;;;;;47.10;10.82;;;;;;;;;;5033162;28;20034;-68
2024/03/28 01:11:34;;;;;;;38.90;9.95;;;;;;;;;;5034266;28;20432;-68
2024/03/28 01:13:59;;;;;;;28.88;8.88;;;;;;;;;;5034031;28;20021;-65
2024/03/28 01:16:25;;;;;;;41.95;9.77;;;;;;;;;;5033866;28;20117;-67
2024/03/28 01:18:50;;;;;;;29.10;9.98;;;;;;;;;;5033878;28;20389;-68
2024/03/28 01:21:16;;;;;;;42.33;9.55;;;;;;;;;;5033693;28;20025;-67
2024/03/28 01:23:41;;;;;;;38.10;9.57;;;;;;;;;;5033302;28;20032;-70
2024/03/28 01:26:06;;;;;;;34.30;10.18;;;;;;;;;;5033465;28;20038;-69
2024/03/28 01:28:32;;;;;;;39.80;9.98;;;;;;;;;;5032722;28;20064;-69
2024/03/28 01:31:07;;;;;;;33.28;10.15;;;;;;;;;;5034058;28;20025;-68
2024/03/28 01:33:32;;;;;;;39.70;10.90;;;;;;;;;;5034139;28;20030;-66
2024/03/28 01:35:58;;;;;;;33.78;9.88;;;;;;;;;;5033374;28;20403;-70
2024/03/28 01:38:23;;;;;;;32.58;9.15;;;;;;;;;;5032606;28;20522;-70
2024/03/28 01:40:50;;;;;;;28.83;8.73;;;;;;;;;;5033977;28;20080;-68
2024/03/28 01:43:15;;;;;;;31.15;8.73;;;;;;;;;;5032714;28;20114;-68
2024/03/28 01:45:41;;;;;;;31.05;8.23;;;;;;;;;;5033095;28;20464;-68
2024/03/28 01:48:07;;;;;;;30.77;8.77;;;;;;;;;;5033812;28;20467;-65
2024/03/28 01:50:32;;;;;;;26.25;8.77;;;;;;;;;;5033957;28;20176;-69
2024/03/28 01:52:58;;;;;;;21.15;8.32;;;;;;;;;;5033226;28;20093;-68
2024/03/28 01:55:24;;;;;;;35.90;8.13;;;;;;;;;;5032983;28;20175;-69
2024/03/28 01:57:50;;;;;;;27.65;7.40;;;;;;;;;;5033300;28;20033;-69
2024/03/28 02:00:15;;;;;;;26.20;7.55;;;;;;;;;;5032273;28;20036;-67
2024/03/28 02:02:41;;;;;;;23.80;7.25;;;;;;;;;;5031591;28;20078;-67
2024/03/28 02:05:07;;;;;;;22.80;6.45;;;;;;;;;;5033201;28;20056;-66
2024/03/28 02:07:32;;;;;;;28.20;6.82;;;;;;;;;;5033181;28;20352;-67
2024/03/28 02:09:58;;;;;;;20.52;6.40;;;;;;;;;;5033371;28;20219;-69
2024/03/28 02:12:23;;;;;;;23.80;6.85;;;;;;;;;;5032634;28;20091;-67
2024/03/28 02:14:49;;;;;;;14.82;5.57;;;;;;;;;;5032668;28;20033;-67
2024/03/28 02:17:14;;;;;;;24.40;5.97;;;;;;;;;;5032746;28;20362;-67
2024/03/28 02:19:40;;;;;;;13.75;5.82;;;;;;;;;;5032264;28;20113;-65
2024/03/28 02:22:06;;;;;;;15.93;5.57;;;;;;;;;;5032810;28;20034;-67
2024/03/28 02:24:31;;;;;;;20.65;6.03;;;;;;;;;;5032244;28;20037;-69
2024/03/28 02:26:57;;;;;;;14.23;5.72;;;;;;;;;;5032730;28;20018;-68
2024/03/28 02:29:22;;;;;;;16.67;5.88;;;;;;;;;;5032782;28;20108;-68
2024/03/28 02:31:48;;;;;;;19.48;5.63;;;;;;;;;;5015415;28;20021;-68
2024/03/28 02:34:14;;;;;;;14.20;5.53;;;;;;;;;;5032373;28;20037;-67
2024/03/28 02:36:39;;;;;;;15.88;5.78;;;;;;;;;;5033102;28;20021;-66
2024/03/28 02:39:06;;;;;;;15.07;6.13;;;;;;;;;;5032451;28;20052;-67
2024/03/28 02:41:32;;;;;;;11.85;5.18;;;;;;;;;;5032428;28;20018;-69
2024/03/28 02:43:57;;;;;;;13.70;5.68;;;;;;;;;;5032200;28;20044;-68
2024/03/28 02:46:23;;;;;;;17.80;5.75;;;;;;;;;;5032110;28;20421;-69
2024/03/28 02:48:48;;;;;;;18.63;6.20;;;;;;;;;;5031982;28;20034;-68
2024/03/28 02:51:14;;;;;;;16.63;7.18;;;;;;;;;;5032233;28;20029;-67
2024/03/28 02:53:39;;;;;;;16.25;6.68;;;;;;;;;;5032570;28;20052;-67
2024/03/28 02:56:04;;;;;;;18.58;7.00;;;;;;;;;;5032279;28;20031;-66
2024/03/28 02:58:30;;;;;;;22.08;7.05;;;;;;;;;;5031329;28;20028;-67
2024/03/28 03:00:55;;;;;;;23.70;7.68;;;;;;;;;;5031972;28;20100;-68
2024/03/28 03:03:21;;;;;;;18.48;7.35;;;;;;;;;;5032103;28;20056;-68
2024/03/28 03:05:49;;;;;;;19.23;6.55;;;;;;;;;;5032184;28;20073;-69
2024/03/28 03:08:14;;;;;;;17.35;6.80;;;;;;;;;;5032123;28;20021;-70
2024/03/28 03:10:40;;;;;;;23.65;7.25;;;;;;;;;;5033520;28;20014;-70
2024/03/28 03:13:05;;;;;;;20.48;7.35;;;;;;;;;;5035847;28;20028;-68
2024/03/28 03:15:31;;;;;;;26.88;8.25;;;;;;;;;;5035133;28;20021;-70
2024/03/28 03:17:56;;;;;;;27.27;8.90;;;;;;;;;;5036383;28;20021;-70
2024/03/28 03:20:22;;;;;;;27.63;9.10;;;;;;;;;;5035011;28;20433;-70
2024/03/28 03:22:48;;;;;;;22.30;8.93;;;;;;;;;;5036005;28;20440;-70
2024/03/28 03:25:24;;;;;;;25.05;8.70;;;;;;;;;;5035903;28;20320;-70
2024/03/28 03:36:02;;;;;;;32.60;9.68;;;;;;;;;;5036306;28;20340;-72
2024/03/28 03:38:27;;;;;;;31.85;9.23;;;;;;;;;;5035341;28;20032;-68
2024/03/28 03:40:52;;;;;;;23.42;9.60;;;;;;;;;;5035727;28;20029;-69
2024/03/28 03:43:18;;;;;;;31.45;10.20;;;;;;;;;;5036014;28;20022;-70
2024/03/28 03:45:43;;;;;;;25.40;9.20;;;;;;;;;;5035811;28;20352;-64
2024/03/28 03:48:09;;;;;;;31.42;8.65;;;;;;;;;;5035276;28;20416;-70
2024/03/28 03:50:34;;;;;;;32.08;9.23;;;;;;;;;;5035808;28;20068;-68
2024/03/28 03:53:00;;;;;;;22.75;8.52;;;;;;;;;;5035590;28;20052;-69
2024/03/28 03:55:25;;;;;;;23.33;8.65;;;;;;;;;;5035506;28;20057;-68
2024/03/28 03:57:51;;;;;;;29.63;9.93;;;;;;;;;;5035149;28;20030;-67
2024/03/28 04:00:17;;;;;;;27.52;9.77;;;;;;;;;;5034327;28;20033;-68
2024/03/28 04:02:42;;;;;;;23.77;9.25;;;;;;;;;;5034237;28;20325;-72
2024/03/28 04:05:08;;;;;;;24.85;11.10;;;;;;;;;;5035351;28;20329;-71
2024/03/28 04:07:33;;;;;;;31.23;11.50;;;;;;;;;;5035395;28;20017;-68
2024/03/28 04:09:59;;;;;;;35.50;11.63;;;;;;;;;;5034725;28;20025;-71
2024/03/28 04:12:24;;;;;;;29.20;10.82;;;;;;;;;;5036005;28;20049;-71
2024/03/28 04:14:50;;;;;;;23.05;11.18;;;;;;;;;;5035248;28;20014;-70
2024/03/28 04:17:15;;;;;;;41.95;12.55;;;;;;;;;;5034662;28;20460;-66
2024/03/28 04:19:41;;;;;;;33.63;12.40;;;;;;;;;;5035233;28;20026;-67
2024/03/28 04:22:06;;;;;;;31.50;12.18;;;;;;;;;;5034404;28;20371;-71
2024/03/28 04:24:31;;;;;;;28.33;11.65;;;;;;;;;;5034728;28;20033;-71
2024/03/28 04:26:57;;;;;;;20.70;10.77;;;;;;;;;;5033778;28;20029;-69
2024/03/28 04:29:22;;;;;;;25.80;11.02;;;;;;;;;;5034770;28;20021;-73
2024/03/28 04:31:48;;;;;;;29.92;11.20;;;;;;;;;;5034838;28;20076;-72
2024/03/28 04:34:13;;;;;;;36.15;15.65;;;;;;;;;;5035365;28;20175;-69
2024/03/28 04:36:38;;;;;;;534.20;273.15;;;;;;;;;;5034632;28;20014;-74
2024/03/28 04:39:04;;;;;;;41.40;31.70;;;;;;;;;;5034101;28;20091;-67
2024/03/28 04:41:29;;;;;;;34.03;23.05;;;;;;;;;;5038146;28;20104;-76
2024/03/28 04:43:55;;;;;;;31.80;19.52;;;;;;;;;;5045184;28;20047;-75
2024/03/28 04:46:20;;;;;;;37.47;29.45;;;;;;;;;;5039917;28;20013;-74
2024/03/28 04:48:46;;;;;;;1999.90;999.90;;;;;;;;;;5034261;28;20196;-74
2024/03/28 04:51:11;;;;;;;1999.90;999.90;;;;;;;;;;5049598;28;20022;-73
2024/03/28 04:53:36;;;;;;;1999.90;999.90;;;;;;;;;;5034074;28;20933;-76
2024/03/28 04:56:02;;;;;;;49.30;44.35;;;;;;;;;;5034003;28;20025;-74
2024/03/28 04:58:27;;;;;;;41.97;21.73;;;;;;;;;;5034354;28;20028;-75
2024/03/28 05:00:53;;;;;;;28.95;19.17;;;;;;;;;;5034047;28;20083;-76
2024/03/28 05:03:18;;;;;;;33.45;17.98;;;;;;;;;;5033857;28;20405;-71
2024/03/28 05:05:45;;;;;;;36.85;16.35;;;;;;;;;;5034526;28;20096;-75
2024/03/28 05:08:11;;;;;;;30.65;14.57;;;;;;;;;;5034148;28;20455;-75
2024/03/28 05:10:37;;;;;;;35.08;11.02;;;;;;;;;;5033880;28;20057;-76
2024/03/28 05:13:02;;;;;;;32.92;11.20;;;;;;;;;;5034051;28;20418;-75
2024/03/28 05:15:27;;;;;;;30.98;11.43;;;;;;;;;;5033850;28;20404;-76
2024/03/28 05:17:53;;;;;;;33.08;11.85;;;;;;;;;;5033186;28;20021;-75
2024/03/28 05:20:19;;;;;;;26.55;11.05;;;;;;;;;;5032575;28;20053;-64
2024/03/28 05:22:44;;;;;;;31.80;10.65;;;;;;;;;;5033556;28;20025;-68
2024/03/28 05:25:09;;;;;;;36.15;10.95;;;;;;;;;;5032892;28;20045;-74
2024/03/28 05:27:35;;;;;;;30.23;10.93;;;;;;;;;;5033767;28;20025;-70
2024/03/28 05:30:01;;;;;;;28.55;10.15;;;;;;;;;;5032790;28;20030;-70
2024/03/28 05:32:26;;;;;;;31.80;10.48;;;;;;;;;;5033407;28;20121;-65
2024/03/28 05:34:52;;;;;;;32.38;11.15;;;;;;;;;;5031352;28;20103;-68
2024/03/28 05:37:17;;;;;;;26.15;9.30;;;;;;;;;;5032477;28;20436;-65
2024/03/28 05:39:42;;;;;;;29.35;9.95;;;;;;;;;;5033472;28;20465;-68
2024/03/28 05:42:08;;;;;;;32.72;10.13;;;;;;;;;;5033517;28;20026;-69
2024/03/28 05:44:33;;;;;;;19.20;8.60;;;;;;;;;;5032678;28;20029;-67
2024/03/28 05:46:59;;;;;;;23.95;9.32;;;;;;;;;;5033468;28;20228;-67
2024/03/28 05:49:24;;;;;;;29.05;9.13;;;;;;;;;;5033566;28;20078;-69
2024/03/28 05:51:50;;;;;;;21.65;8.18;;;;;;;;;;5033545;28;20029;-69
2024/03/28 05:54:15;;;;;;;25.63;8.00;;;;;;;;;;5033153;28;20487;-68
2024/03/28 05:56:41;;;;;;;30.88;8.57;;;;;;;;;;5033038;28;20033;-70
2024/03/28 05:59:06;;;;;;;27.48;9.40;;;;;;;;;;5032410;28;20428;-68
2024/03/28 06:01:32;;;;;;;31.25;9.63;;;;;;;;;;5032893;28;20282;-68
2024/03/28 06:03:58;;;;;;;20.10;8.27;;;;;;;;;;5032999;28;20459;-70
2024/03/28 06:06:24;;;;;;;23.65;9.40;;;;;;;;;;5032879;28;20454;-69
2024/03/28 06:08:49;;;;;;;25.40;8.63;;;;;;;;;;5033493;28;20100;-68
2024/03/28 06:11:15;;;;;;;20.88;8.35;;;;;;;;;;5032708;28;20025;-69
2024/03/28 06:13:40;;;;;;;23.88;7.78;;;;;;;;;;5032893;28;20116;-67
2024/03/28 06:16:05;;;;;;;27.35;8.95;;;;;;;;;;5032784;28;20021;-68
2024/03/28 06:18:34;;;;;;;22.80;8.85;;;;;;;;;;5033174;28;20349;-68
2024/03/28 06:21:03;;;;;;;19.27;8.85;;;;;;;;;;5033103;28;20040;-68
2024/03/28 06:23:29;;;;;;;25.95;9.63;;;;;;;;;;5032620;28;20040;-68
2024/03/28 06:25:54;;;;;;;22.02;10.02;;;;;;;;;;5031941;28;20033;-68
2024/03/28 06:28:20;;;;;;;24.38;10.18;;;;;;;;;;5033800;28;20061;-70
2024/03/28 06:30:48;;;;;;;18.85;9.70;;;;;;;;;;5033342;28;20029;-69
2024/03/28 06:33:15;;;;;;;26.35;9.43;;;;;;;;;;5033038;28;20350;-70
2024/03/28 06:35:40;;;;;;;25.55;8.90;;;;;;;;;;5032470;28;20072;-70
2024/03/28 06:38:06;;;;;;;28.33;9.30;;;;;;;;;;5031512;28;20017;-69
2024/03/28 06:40:31;;;;;;;21.38;8.57;;;;;;;;;;5031881;28;20432;-70
2024/03/28 06:42:58;;;;;;;26.60;9.02;;;;;;;;;;5032378;28;20033;-68
2024/03/28 06:45:23;;;;;;;20.73;9.82;;;;;;;;;;5032341;28;20030;-62
2024/03/28 06:47:49;;;;;;;21.53;8.00;;;;;;;;;;5033085;28;20079;-68
2024/03/28 06:50:14;;;;;;;24.77;9.55;;;;;;;;;;5032190;28;20079;-68
2024/03/28 06:52:41;;;;;;;24.35;8.02;;;;;;;;;;5032289;28;20428;-69
2024/03/28 06:55:06;;;;;;;15.90;6.43;;;;;;;;;;5031691;28;20045;-67
2024/03/28 06:57:33;;;;;;;15.32;6.63;;;;;;;;;;5031926;28;20049;-65
2024/03/28 06:59:58;;;;;;;10.77;4.95;;;;;;;;;;5032168;28;20025;-73
2024/03/28 07:02:24;;;;;;;19.15;5.88;;;;;;;;;;5032631;28;20040;-71
2024/03/28 07:04:50;;;;;;;18.65;6.43;;;;;;;;;;5031844;28;20025;-69
2024/03/28 07:07:15;;;;;;;21.03;7.00;;;;;;;;;;5031891;28;20034;-66
2024/03/28 07:09:40;;;;;;;14.85;6.75;;;;;;;;;;5032545;28;20329;-69
2024/03/28 07:12:06;;;;;;;15.73;6.07;;;;;;;;;;5031291;28;20407;-70
2024/03/28 07:14:31;;;;;;;10.32;4.90;;;;;;;;;;5031722;28;20286;-68
2024/03/28 07:16:57;;;;;;;11.38;5.25;;;;;;;;;;5032494;28;20448;-70
2024/03/28 07:19:22;;;;;;;13.77;5.50;;;;;;;;;;5032753;28;20459;-71
2024/03/28 07:21:47;;;;;;;10.80;5.57;;;;;;;;;;5032253;28;20308;-71
2024/03/28 07:24:13;;;;;;;11.20;5.60;;;;;;;;;;5031961;28;20243;-70
2024/03/28 07:26:38;;;;;;;9.80;5.82;;;;;;;;;;5032189;28;20120;-71
2024/03/28 07:29:04;;;;;;;14.32;5.72;;;;;;;;;;5027552;28;20139;-67
2024/03/28 07:31:30;;;;;;;15.38;5.45;;;;;;;;;;5026921;28;20021;-65
2024/03/28 07:33:56;;;;;;;15.93;5.82;;;;;;;;;;5031986;28;20052;-64
2024/03/28 07:36:21;;;;;;;13.43;5.07;;;;;;;;;;5030672;28;20433;-71
2024/03/28 07:38:47;;;;;;;12.57;4.50;;;;;;;;;;5031334;28;20048;-67
2024/03/28 07:41:13;;;;;;;9.35;4.13;;;;;;;;;;5031077;28;20724;-67
2024/03/28 07:43:38;;;;;;;8.93;4.03;;;;;;;;;;5030335;28;20021;-68
2024/03/28 07:46:04;;;;;;;10.18;3.90;;;;;;;;;;5030874;28;20029;-67
2024/03/28 07:48:30;;;;;;;6.80;2.72;;;;;;;;;;5029898;28;20035;-67
2024/03/28 07:51:02;;;;;;;5.43;2.88;;;;;;;;;;5030558;28;20029;-69
2024/03/28 07:53:28;;;;;;;8.43;3.35;;;;;;;;;;5031011;28;20057;-66
2024/03/28 07:55:53;;;;;;;12.43;3.03;;;;;;;;;;5030981;28;20091;-68
2024/03/28 07:58:19;;;;;;;7.72;3.30;;;;;;;;;;5031738;28;20140;-64
2024/03/28 08:00:45;;;;;;;6.03;3.55;;;;;;;;;;5034387;28;20021;-65
2024/03/28 08:03:14;;;;;;;8.25;3.58;;;;;;;;;;5033982;28;20033;-63
2024/03/28 08:05:40;;;;;;;8.23;3.80;;;;;;;;;;5034705;28;20075;-64
2024/03/28 08:08:05;;;;;;;9.32;3.40;;;;;;;;;;5032850;28;20041;-64
2024/03/28 08:10:31;;;;;;;13.32;3.65;;;;;;;;;;5034531;28;20444;-65
2024/03/28 08:12:57;;;;;;;6.57;3.42;;;;;;;;;;5035007;28;20074;-67
2024/03/28 08:15:25;;;;;;;9.45;3.85;;;;;;;;;;5034054;28;20049;-64
2024/03/28 08:17:50;;;;;;;11.75;3.80;;;;;;;;;;5034638;28;20058;-64
2024/03/28 08:20:16;;;;;;;9.95;4.18;;;;;;;;;;5033649;28;20075;-66
2024/03/28 08:22:43;;;;;;;13.15;5.75;;;;;;;;;;5034565;28;20029;-68
2024/03/28 08:25:09;;;;;;;8.07;4.22;;;;;;;;;;5034093;28;20443;-66
2024/03/28 08:27:35;;;;;;;9.35;4.20;;;;;;;;;;5034429;28;20400;-68
2024/03/28 08:30:00;;;;;;;12.63;4.70;;;;;;;;;;5032271;28;20017;-68
2024/03/28 08:32:26;;;;;;;10.43;4.80;;;;;;;;;;5032393;28;20368;-69
2024/03/28 08:34:51;;;;;;;10.30;4.38;;;;;;;;;;5026393;28;20116;-67
2024/03/28 08:37:17;;;;;;;13.57;5.00;;;;;;;;;;5031079;28;20029;-69
2024/03/28 08:39:42;;;;;;;20.67;5.32;;;;;;;;;;5033902;28;20091;-68
2024/03/28 08:42:08;;;;;;;8.55;3.95;;;;;;;;;;5032512;28;20112;-69
2024/03/28 08:44:33;;;;;;;9.25;4.00;;;;;;;;;;5033532;28;20535;-70
2024/03/28 08:46:59;;;;;;;10.77;4.40;;;;;;;;;;5033250;28;20021;-67
2024/03/28 08:49:24;;;;;;;13.23;4.40;;;;;;;;;;5033959;28;20029;-68
2024/03/28 08:51:49;;;;;;;12.73;4.22;;;;;;;;;;5033231;28;20028;-66
2024/03/28 08:54:16;;;;;;;10.40;4.97;;;;;;;;;;5031707;28;20049;-68
2024/03/28 08:56:42;;;;;;;9.52;4.68;;;;;;;;;;5031866;28;20034;-69
2024/03/28 08:59:07;;;;;;;12.75;4.55;;;;;;;;;;5030741;28;20132;-69
2024/03/28 09:01:34;;;;;;;8.75;4.07;;;;;;;;;;5032251;28;20109;-70
2024/03/28 09:03:59;;;;;;;11.00;4.03;;;;;;;;;;5032655;28;20051;-65
2024/03/28 09:06:24;;;;;;;12.85;4.40;;;;;;;;;;5031725;28;20425;-66
2024/03/28 09:08:50;;;;;;;7.28;3.88;;;;;;;;;;5032236;28;20025;-68
2024/03/28 09:11:15;;;;;;;9.07;4.40;;;;;;;;;;5032372;28;20029;-67
2024/03/28 09:13:41;;;;;;;10.98;4.20;;;;;;;;;;5033188;28;20036;-67
2024/03/28 09:16:07;;;;;;;18.13;5.70;;;;;;;;;;5031548;28;20033;-71
2024/03/28 09:18:32;;;;;;;14.98;5.20;;;;;;;;;;5033120;28;20348;-68
2024/03/28 09:20:59;;;;;;;12.75;4.97;;;;;;;;;;5031330;28;20029;-66
2024/03/28 09:23:24;;;;;;;12.32;5.20;;;;;;;;;;5032597;28;20017;-64
2024/03/28 09:25:49;;;;;;;16.80;6.00;;;;;;;;;;5032094;28;20040;-68
2024/03/28 09:28:15;;;;;;;18.60;5.40;;;;;;;;;;5015117;28;20110;-68
2024/03/28 09:30:41;;;;;;;15.07;5.38;;;;;;;;;;5032470;28;20033;-67
2024/03/28 09:33:06;;;;;;;12.48;5.72;;;;;;;;;;5032847;28;20064;-70
2024/03/28 09:35:34;;;;;;;14.07;4.90;;;;;;;;;;5031892;28;20033;-72
2024/03/28 09:37:59;;;;;;;13.20;5.45;;;;;;;;;;5033155;28;20022;-64
2024/03/28 09:40:26;;;;;;;17.58;5.70;;;;;;;;;;5033039;28;20044;-69
2024/03/28 09:42:52;;;;;;;19.50;5.45;;;;;;;;;;5033094;28;20030;-67
2024/03/28 09:45:17;;;;;;;13.93;5.18;;;;;;;;;;5031808;28;20029;-65
2024/03/28 09:47:43;;;;;;;13.02;5.80;;;;;;;;;;5032404;28;20099;-66
2024/03/28 09:50:12;;;;;;;12.35;5.18;;;;;;;;;;5032640;28;20021;-73
2024/03/28 09:52:39;;;;;;;8.15;4.95;;;;;;;;;;5032342;28;20083;-71
2024/03/28 09:55:07;;;;;;;13.65;5.65;;;;;;;;;;5032183;28;20059;-68
2024/03/28 09:57:33;;;;;;;17.55;5.15;;;;;;;;;;5031166;28;20407;-68
2024/03/28 09:59:59;;;;;;;13.38;5.55;;;;;;;;;;5030161;28;20147;-67
2024/03/28 10:02:38;;;;;;;17.50;5.10;;;;;;;;;;5030565;28;20108;-69
2024/03/28 10:05:04;;;;;;;13.00;4.13;;;;;;;;;;5031650;28;20037;-66
2024/03/28 10:07:30;;;;;;;10.13;4.57;;;;;;;;;;5032172;28;20024;-65
2024/03/28 10:09:56;;;;;;;17.23;5.07;;;;;;;;;;5029563;28;20035;-65
2024/03/28 10:12:22;;;;;;;8.65;4.03;;;;;;;;;;5032238;28;20112;-67
2024/03/28 10:14:51;;;;;;;9.95;3.80;;;;;;;;;;5030981;28;20069;-63
2024/03/28 10:17:17;;;;;;;9.32;3.78;;;;;;;;;;5029799;28;20040;-65
2024/03/28 10:19:42;;;;;;;14.27;4.20;;;;;;;;;;5031300;28;20019;-65
2024/03/28 10:22:09;;;;;;;9.40;3.85;;;;;;;;;;5030116;28;20026;-65
2024/03/28 10:24:36;;;;;;;10.50;4.43;;;;;;;;;;5029973;28;20072;-67
2024/03/28 10:27:11;;;;;;;11.05;4.03;;;;;;;;;;5031866;28;20018;-68
2024/03/28 10:29:36;;;;;;;13.80;4.22;;;;;;;;;;5030820;28;20119;-66
2024/03/28 10:32:05;;;;;;;30.85;4.28;;;;;;;;;;5030513;28;20408;-65
2024/03/28 10:34:30;;;;;;;13.55;4.13;;;;;;;;;;5029917;28;20052;-65
2024/03/28 10:37:05;;;;;;;9.70;4.50;;;;;;;;;;5032456;28;20429;-66
2024/03/28 10:39:31;;;;;;;13.85;4.47;;;;;;;;;;5032345;28;20487;-65
2024/03/28 10:41:58;;;;;;;7.95;4.03;;;;;;;;;;5031838;28;20025;-68
2024/03/28 10:44:25;;;;;;;8.05;3.47;;;;;;;;;;5032343;28;20033;-67
2024/03/28 10:46:51;;;;;;;10.25;3.83;;;;;;;;;;5031611;28;20018;-67
2024/03/28 10:49:18;;;;;;;14.75;3.50;;;;;;;;;;5031416;28;20029;-69
2024/03/28 10:51:44;;;;;;;9.60;3.55;;;;;;;;;;5031763;28;20119;-68
2024/03/28 10:54:12;;;;;;;18.58;3.60;;;;;;;;;;5031631;28;20446;-67
2024/03/28 10:56:38;;;;;;;7.22;3.58;;;;;;;;;;5031828;28;20123;-68
2024/03/28 10:59:04;;;;;;;17.90;4.32;;;;;;;;;;5030705;28;20033;-67
2024/03/28 11:01:30;;;;;;;12.93;3.92;;;;;;;;;;5030572;28;20022;-68
2024/03/28 11:03:56;;;;;;;10.07;3.60;;;;;;;;;;5030417;28;20029;-68
2024/03/28 11:06:23;;;;;;;11.43;3.33;;;;;;;;;;5031337;28;20753;-68
2024/03/28 11:08:49;;;;;;;11.52;3.35;;;;;;;;;;5031635;28;20064;-69
2024/03/28 11:11:14;;;;;;;10.80;3.63;;;;;;;;;;5030919;28;20061;-68
2024/03/28 11:13:39;;;;;;;12.00;3.75;;;;;;;;;;5031002;28;20029;-67
2024/03/28 11:16:05;;;;;;;8.40;3.45;;;;;;;;;;5030720;28;20041;-68
2024/03/28 11:18:32;;;;;;;10.20;3.20;;;;;;;;;;5031637;28;20025;-68
2024/03/28 11:20:58;;;;;;;6.22;3.10;;;;;;;;;;5031471;28;20014;-68
2024/03/28 11:23:23;;;;;;;6.85;2.83;;;;;;;;;;5031357;28;20087;-66
2024/03/28 11:25:49;;;;;;;5.43;2.90;;;;;;;;;;5031309;28;20074;-65
2024/03/28 11:28:14;;;;;;;11.13;3.35;;;;;;;;;;5031067;28;20117;-66
2024/03/28 11:31:00;;;;;;;9.15;3.55;;;;;;;;;;5031375;28;20033;-68
2024/03/28 11:33:29;;;;;;;7.80;2.85;;;;;;;;;;5015597;28;20040;-69
2024/03/28 11:35:57;;;;;;;6.00;3.15;;;;;;;;;;5015844;28;20045;-69
2024/03/28 11:38:23;;;;;;;8.05;3.78;;;;;;;;;;5015806;28;20022;-68
2024/03/28 11:40:48;;;;;;;6.97;3.40;;;;;;;;;;5032773;28;20094;-67
2024/03/28 11:43:14;;;;;;;10.93;3.55;;;;;;;;;;5035264;28;20033;-75
2024/03/28 11:45:50;;;;;;;8.60;3.30;;;;;;;;;;5035574;28;20186;-70
2024/03/28 11:48:15;;;;;;;6.50;3.50;;;;;;;;;;5034309;28;20360;-72
2024/03/28 11:50:41;;;;;;;9.50;3.13;;;;;;;;;;5034749;28;20044;-73
2024/03/28 11:53:07;;;;;;;7.40;3.20;;;;;;;;;;5035272;28;20033;-72
2024/03/28 11:55:38;;;;;;;10.00;3.35;;;;;;;;;;5035791;28;20171;-72
2024/03/28 11:58:04;;;;;;;6.00;3.00;;;;;;;;;;5033948;28;20040;-67
2024/03/28 12:00:29;;;;;;;8.07;3.33;;;;;;;;;;5034091;28;20463;-64
2024/03/28 12:02:58;;;;;;;11.80;3.30;;;;;;;;;;5034332;28;20044;-67
2024/03/28 12:05:23;;;;;;;8.73;3.40;;;;;;;;;;5035074;28;20013;-67
2024/03/28 12:07:50;;;;;;;6.70;3.40;;;;;;;;;;5034168;28;20029;-65
2024/03/28 12:10:19;;;;;;;11.02;3.53;;;;;;;;;;5034226;28;20036;-65
2024/03/28 12:12:46;;;;;;;11.48;3.63;;;;;;;;;;5034811;28;20021;-72
2024/03/28 12:15:11;;;;;;;8.20;3.63;;;;;;;;;;5033707;28;20105;-66
2024/03/28 12:17:36;;;;;;;5.55;3.35;;;;;;;;;;5032956;28;20120;-63
2024/03/28 12:20:14;;;;;;;11.40;4.20;;;;;;;;;;5034419;28;20061;-61
2024/03/28 12:22:40;;;;;;;14.85;3.30;;;;;;;;;;5034364;28;20399;-63
2024/03/28 12:25:08;;;;;;;8.60;3.25;;;;;;;;;;5034352;28;20080;-63
2024/03/28 12:27:34;;;;;;;8.52;3.20;;;;;;;;;;5033033;28;20049;-64
2024/03/28 12:30:05;;;;;;;9.95;3.20;;;;;;;;;;5034023;28;20056;-63
2024/03/28 12:32:31;;;;;;;7.90;3.40;;;;;;;;;;5032252;28;20042;-65
2024/03/28 12:34:56;;;;;;;11.38;3.40;;;;;;;;;;5034092;28;20099;-63
2024/03/28 12:37:22;;;;;;;7.57;3.42;;;;;;;;;;5032763;28;20064;-66
2024/03/28 12:39:47;;;;;;;10.57;3.45;;;;;;;;;;5034225;28;20023;-68
2024/03/28 12:42:19;;;;;;;10.70;3.63;;;;;;;;;;5033766;28;20325;-66
2024/03/28 12:44:45;;;;;;;8.38;3.50;;;;;;;;;;5032820;28;20475;-67
2024/03/28 12:47:10;;;;;;;16.45;3.10;;;;;;;;;;5033534;28;20049;-67
2024/03/28 12:49:36;;;;;;;9.57;3.58;;;;;;;;;;5033845;28;20030;-65
2024/03/28 12:52:01;;;;;;;8.43;3.13;;;;;;;;;;5032451;28;20456;-67
2024/03/28 12:54:26;;;;;;;6.85;2.95;;;;;;;;;;5033166;28;20148;-66
2024/03/28 12:56:52;;;;;;;7.53;3.05;;;;;;;;;;5032885;28;20041;-64
2024/03/28 12:59:17;;;;;;;7.88;3.00;;;;;;;;;;5032142;28;20396;-66
2024/03/28 13:01:43;;;;;;;11.85;3.75;;;;;;;;;;5014426;28;20025;-66
2024/03/28 13:04:08;;;;;;;11.35;3.10;;;;;;;;;;5033036;28;20025;-66
2024/03/28 13:06:33;;;;;;;7.40;3.78;;;;;;;;;;5032758;28;20049;-67
2024/03/28 13:08:59;;;;;;;11.10;4.57;;;;;;;;;;5031971;28;20021;-65
2024/03/28 13:11:24;;;;;;;10.20;4.25;;;;;;;;;;5033045;28;20162;-65
2024/03/28 13:13:49;;;;;;;14.10;4.40;;;;;;;;;;5032837;28;20028;-66
2024/03/28 13:16:15;;;;;;;7.40;4.18;;;;;;;;;;5015345;28;20076;-70
2024/03/28 13:18:40;;;;;;;9.35;4.35;;;;;;;;;;5032912;28;20310;-74
2024/03/28 13:21:06;;;;;;;14.02;4.80;;;;;;;;;;5033060;28;20029;-65
2024/03/28 13:23:31;;;;;;;16.95;4.60;;;;;;;;;;5033344;28;20021;-68
2024/03/28 13:25:57;;;;;;;16.40;4.78;;;;;;;;;;5032218;28;20054;-66
2024/03/28 13:28:22;;;;;;;10.88;4.80;;;;;;;;;;5032626;28;20119;-72
2024/03/28 13:30:47;;;;;;;8.75;4.53;;;;;;;;;;5032579;28;20420;-67
2024/03/28 13:33:13;;;;;;;8.13;4.43;;;;;;;;;;5031966;28;20025;-64
2024/03/28 13:35:38;;;;;;;13.55;4.70;;;;;;;;;;5032984;28;20029;-65
2024/03/28 13:38:04;;;;;;;14.65;4.88;;;;;;;;;;5032550;28;20048;-65
2024/03/28 13:40:30;;;;;;;11.63;5.22;;;;;;;;;;5033055;28;20562;-67
2024/03/28 13:42:55;;;;;;;13.23;4.40;;;;;;;;;;5031966;28;20025;-65
2024/03/28 13:45:21;;;;;;;14.32;4.63;;;;;;;;;;5032992;28;20022;-67
2024/03/28 13:47:46;;;;;;;9.73;4.38;;;;;;;;;;5030742;28;20436;-67
2024/03/28 13:50:11;;;;;;;11.80;5.00;;;;;;;;;;5032759;28;20091;-67
2024/03/28 13:52:37;;;;;;;9.55;4.70;;;;;;;;;;5032703;28;20029;-68
2024/03/28 13:55:02;;;;;;;12.40;5.15;;;;;;;;;;5030543;28;20068;-66
2024/03/28 13:57:28;;;;;;;7.25;4.75;;;;;;;;;;5031876;28;20286;-69
2024/03/28 13:59:53;;;;;;;11.35;4.95;;;;;;;;;;5032331;28;20049;-68
2024/03/28 14:02:19;;;;;;;13.93;5.30;;;;;;;;;;5030168;28;20492;-69
2024/03/28 14:04:44;;;;;;;11.45;5.40;;;;;;;;;;5031549;28;20429;-70
2024/03/28 14:07:10;;;;;;;13.32;5.72;;;;;;;;;;5031935;28;20064;-66
2024/03/28 14:09:35;;;;;;;17.92;5.30;;;;;;;;;;5031638;28;20453;-66
2024/03/28 14:12:01;;;;;;;14.70;5.95;;;;;;;;;;5032634;28;20326;-68
2024/03/28 14:14:26;;;;;;;12.50;5.60;;;;;;;;;;5031631;28;20022;-68
2024/03/28 14:16:52;;;;;;;14.25;5.60;;;;;;;;;;5013500;28;20033;-68
2024/03/28 14:19:17;;;;;;;15.43;5.60;;;;;;;;;;5031198;28;20528;-67
2024/03/28 14:21:43;;;;;;;10.95;5.32;;;;;;;;;;5028581;28;20029;-69
2024/03/28 14:24:08;;;;;;;17.75;5.85;;;;;;;;;;5030902;28;20029;-72
2024/03/28 14:26:34;;;;;;;12.50;5.43;;;;;;;;;;5032200;28;20541;-70
2024/03/28 14:28:59;;;;;;;15.55;5.57;;;;;;;;;;5031936;28;20018;-69
2024/03/28 14:31:25;;;;;;;10.68;4.95;;;;;;;;;;5031546;28;20169;-71